Time;durP1;ratioP1;P1;durP2;ratioP2;P2;SDS_P1;SDS_P2;PMS_P1;PMS_P2;Temp;Humidity;BMP_temperature;BMP_pressure;BME280_temperature;BME280_humidity;BME280_pressure;Samples;Min_cycle;Max_cycle;Signal;HPM_P1;HPM_P2
2021/09/01 00:00:57;;;;;;;12.57;4.53;;;16.40;99.90;;;;;;5095158;28;20092;-55
2021/09/01 00:03:23;;;;;;;14.00;4.90;;;16.40;99.90;;;;;;5095389;28;20044;-56
2021/09/01 00:05:49;;;;;;;19.80;5.90;;;16.40;99.90;;;;;;5095362;28;20040;-55
2021/09/01 00:08:15;;;;;;;14.40;5.40;;;16.40;99.90;;;;;;5095288;28;20139;-56
2021/09/01 00:10:41;;;;;;;17.90;5.63;;;16.40;99.90;;;;;;5095371;28;20032;-56
2021/09/01 00:13:07;;;;;;;14.60;4.57;;;16.40;99.90;;;;;;5095182;28;20089;-56
2021/09/01 00:15:32;;;;;;;18.35;5.32;;;16.30;99.90;;;;;;5077071;28;20032;-55
2021/09/01 00:17:58;;;;;;;15.80;5.38;;;16.30;99.90;;;;;;5095405;28;20466;-56
2021/09/01 00:20:26;;;;;;;16.00;4.70;;;16.30;99.90;;;;;;5094753;28;20036;-56
2021/09/01 00:22:53;;;;;;;17.52;4.97;;;16.30;99.90;;;;;;5094912;28;20071;-55
2021/09/01 00:25:18;;;;;;;17.83;5.65;;;16.30;99.90;;;;;;5094771;28;20098;-56
2021/09/01 00:27:44;;;;;;;18.50;5.15;;;16.30;99.90;;;;;;5076643;28;20493;-56
2021/09/01 00:30:10;;;;;;;16.23;4.38;;;16.30;99.90;;;;;;5094603;28;20048;-56
2021/09/01 00:32:36;;;;;;;18.10;4.88;;;16.30;99.90;;;;;;5094848;28;20032;-55
2021/09/01 00:35:02;;;;;;;15.23;5.03;;;16.30;99.90;;;;;;5076539;28;20485;-56
2021/09/01 00:37:28;;;;;;;20.35;5.13;;;16.30;99.90;;;;;;5094741;28;20048;-56
2021/09/01 00:39:53;;;;;;;18.15;5.15;;;16.30;99.90;;;;;;5094632;28;20101;-55
2021/09/01 00:42:19;;;;;;;18.30;5.28;;;16.30;99.90;;;;;;5094154;28;20044;-56
2021/09/01 00:44:46;;;;;;;18.13;5.28;;;16.20;99.90;;;;;;5094269;28;20452;-56
2021/09/01 00:47:21;;;;;;;15.52;4.95;;;16.30;99.90;;;;;;5094630;28;20110;-56
2021/09/01 00:49:47;;;;;;;17.25;5.35;;;16.30;99.90;;;;;;5094284;28;20032;-56
2021/09/01 00:52:14;;;;;;;17.17;5.55;;;16.30;99.90;;;;;;5094365;28;20043;-56
2021/09/01 00:54:40;;;;;;;16.55;5.10;;;16.30;99.90;;;;;;5075856;28;20091;-56
2021/09/01 00:57:07;;;;;;;13.48;4.50;;;16.20;99.90;;;;;;5094293;28;20046;-56
2021/09/01 00:59:39;;;;;;;12.15;4.93;;;16.30;99.90;;;;;;5075919;28;20060;-56
2021/09/01 01:02:05;;;;;;;17.05;4.75;;;16.30;99.90;;;;;;5094131;28;20036;-56
2021/09/01 01:04:32;;;;;;;12.20;4.55;;;16.30;99.90;;;;;;5094041;28;20051;-55
2021/09/01 01:07:03;;;;;;;14.93;4.65;;;16.30;99.90;;;;;;5094346;28;20051;-56
2021/09/01 01:09:30;;;;;;;19.13;4.72;;;16.30;99.90;;;;;;5094253;28;20040;-55
2021/09/01 01:12:10;;;;;;;14.85;4.38;;;16.30;99.90;;;;;;5094026;28;20541;-56
2021/09/01 01:14:44;;;;;;;20.30;5.30;;;16.20;99.90;;;;;;5094100;28;20039;-56
2021/09/01 01:17:11;;;;;;;17.65;4.30;;;16.20;99.90;;;;;;5094048;28;20063;-56
2021/09/01 01:19:45;;;;;;;16.10;4.85;;;16.20;99.90;;;;;;5093975;28;20097;-55
2021/09/01 01:22:13;;;;;;;15.63;5.10;;;16.20;99.90;;;;;;5093546;28;20036;-56
2021/09/01 01:24:48;;;;;;;15.00;5.17;;;16.20;99.90;;;;;;5093769;28;20045;-56
2021/09/01 01:27:34;;;;;;;16.52;5.03;;;16.20;99.90;;;;;;5094017;28;20620;-55
2021/09/01 01:30:10;;;;;;;15.65;5.28;;;16.10;99.90;;;;;;5093505;28;20093;-56
2021/09/01 01:32:37;;;;;;;18.77;4.93;;;16.10;99.90;;;;;;5093640;28;20500;-56
2021/09/01 01:35:04;;;;;;;14.43;4.88;;;16.20;99.90;;;;;;5093345;28;20147;-56
2021/09/01 01:37:30;;;;;;;16.05;5.13;;;16.20;99.90;;;;;;5093560;28;20490;-55
2021/09/01 01:39:55;;;;;;;13.55;4.75;;;16.20;99.90;;;;;;5093749;28;20042;-56
2021/09/01 01:42:21;;;;;;;19.15;5.10;;;16.10;99.90;;;;;;5093439;28;20036;-55
2021/09/01 01:44:47;;;;;;;13.32;4.47;;;16.10;99.90;;;;;;5093260;28;20048;-55
2021/09/01 01:47:12;;;;;;;14.00;5.50;;;16.10;99.90;;;;;;5093195;28;20036;-55
2021/09/01 01:49:38;;;;;;;16.67;5.22;;;16.10;99.90;;;;;;5093117;28;20036;-56
2021/09/01 01:52:04;;;;;;;18.08;4.82;;;16.20;99.90;;;;;;5093014;28;20089;-55
2021/09/01 01:54:30;;;;;;;19.58;6.38;;;16.10;99.90;;;;;;5074501;28;20123;-55
2021/09/01 01:56:55;;;;;;;19.10;5.30;;;16.10;99.90;;;;;;5093122;28;20100;-56
2021/09/01 01:59:21;;;;;;;17.63;5.40;;;16.20;99.90;;;;;;5092951;28;20044;-55
2021/09/01 02:01:48;;;;;;;14.43;4.70;;;16.20;99.90;;;;;;5093089;28;20052;-55
2021/09/01 02:04:14;;;;;;;14.02;4.72;;;16.10;99.90;;;;;;5093135;28;20087;-56
2021/09/01 02:06:40;;;;;;;11.60;5.28;;;16.10;99.90;;;;;;5093036;28;20064;-56
2021/09/01 02:09:05;;;;;;;14.10;5.05;;;16.10;99.90;;;;;;5093021;28;20040;-56
2021/09/01 02:11:31;;;;;;;15.48;4.43;;;16.10;99.90;;;;;;5092873;28;20066;-56
2021/09/01 02:13:57;;;;;;;17.10;5.00;;;16.00;99.90;;;;;;5074453;28;20043;-55
2021/09/01 02:16:23;;;;;;;15.23;4.63;;;16.00;99.90;;;;;;5092722;28;20048;-56
2021/09/01 02:18:48;;;;;;;16.80;4.82;;;15.90;99.90;;;;;;5092895;28;20036;-56
2021/09/01 02:21:14;;;;;;;19.70;5.30;;;16.00;99.90;;;;;;5074893;28;20054;-55
2021/09/01 02:23:40;;;;;;;21.25;5.90;;;16.00;99.90;;;;;;5092691;28;20499;-56
2021/09/01 02:26:05;;;;;;;20.10;5.90;;;16.00;99.90;;;;;;5092752;28;20043;-56
2021/09/01 02:28:31;;;;;;;19.23;6.10;;;16.00;99.90;;;;;;5092562;28;20077;-56
2021/09/01 02:30:56;;;;;;;14.18;4.90;;;15.90;99.90;;;;;;5092480;28;20146;-55
2021/09/01 02:33:22;;;;;;;18.75;4.97;;;16.00;99.90;;;;;;5092485;28;20123;-56
2021/09/01 02:35:48;;;;;;;20.02;5.68;;;16.00;99.90;;;;;;5074229;28;20052;-55
2021/09/01 02:38:13;;;;;;;11.68;4.50;;;16.00;99.90;;;;;;5092413;28;20039;-55
2021/09/01 02:40:39;;;;;;;15.55;4.53;;;16.00;99.90;;;;;;5092244;28;20072;-56
2021/09/01 02:43:05;;;;;;;13.52;4.78;;;16.00;99.90;;;;;;5092326;28;20050;-56
2021/09/01 02:45:31;;;;;;;12.63;4.78;;;16.10;99.90;;;;;;5074008;28;20470;-56
2021/09/01 02:47:57;;;;;;;19.27;4.55;;;16.00;99.90;;;;;;5073918;28;20035;-56
2021/09/01 02:50:24;;;;;;;17.88;4.88;;;16.10;99.90;;;;;;5092324;28;20105;-56
2021/09/01 02:52:49;;;;;;;14.57;4.88;;;16.10;99.90;;;;;;5092104;28;20046;-56
2021/09/01 02:55:15;;;;;;;19.67;5.28;;;16.10;99.90;;;;;;5092208;28;20401;-56
2021/09/01 02:57:41;;;;;;;20.15;4.68;;;16.10;99.90;;;;;;5092082;28;20078;-56
2021/09/01 03:00:07;;;;;;;14.45;4.22;;;16.10;99.90;;;;;;5092052;28;20402;-56
2021/09/01 03:02:33;;;;;;;16.95;4.97;;;16.10;99.90;;;;;;5092339;28;20056;-56
2021/09/01 03:04:59;;;;;;;16.10;5.00;;;16.10;99.90;;;;;;5092261;28;20149;-56
2021/09/01 03:07:24;;;;;;;11.75;4.68;;;16.10;99.90;;;;;;5092052;28;20036;-56
2021/09/01 03:09:50;;;;;;;13.32;5.07;;;16.10;99.90;;;;;;5091920;28;20074;-56
2021/09/01 03:12:16;;;;;;;16.98;5.00;;;16.10;99.90;;;;;;5092012;28;20063;-55
2021/09/01 03:14:42;;;;;;;12.15;4.68;;;16.00;99.90;;;;;;5091742;28;20363;-55
2021/09/01 03:17:07;;;;;;;14.93;5.57;;;16.00;99.90;;;;;;5091916;28;20478;-56
2021/09/01 03:19:33;;;;;;;17.25;5.25;;;16.00;99.90;;;;;;5091827;28;20375;-56
2021/09/01 03:21:58;;;;;;;16.38;4.72;;;16.00;99.90;;;;;;5074065;28;20080;-55
2021/09/01 03:24:24;;;;;;;16.48;5.40;;;16.00;99.90;;;;;;5091648;28;20039;-55
2021/09/01 03:26:50;;;;;;;15.43;5.15;;;16.00;99.90;;;;;;5091762;28;20036;-56
2021/09/01 03:29:15;;;;;;;18.83;5.07;;;16.00;99.90;;;;;;5091657;28;20032;-55
2021/09/01 03:31:41;;;;;;;17.65;4.55;;;16.00;99.90;;;;;;5091804;28;20039;-55
2021/09/01 03:34:07;;;;;;;12.13;4.20;;;16.00;99.90;;;;;;5091874;28;20043;-56
2021/09/01 03:36:32;;;;;;;13.32;4.75;;;15.90;99.90;;;;;;5091532;28;20044;-56
2021/09/01 03:38:58;;;;;;;16.67;5.45;;;16.00;99.90;;;;;;5091906;28;20078;-56
2021/09/01 03:41:24;;;;;;;16.48;5.47;;;16.00;99.90;;;;;;5091847;28;20044;-56
2021/09/01 03:43:49;;;;;;;14.05;4.32;;;16.00;99.90;;;;;;5091756;28;20051;-56
2021/09/01 03:46:15;;;;;;;14.20;4.60;;;16.00;99.90;;;;;;5091615;28;20028;-56
2021/09/01 03:48:41;;;;;;;18.42;5.40;;;16.00;99.90;;;;;;5091665;28;20028;-56
2021/09/01 03:51:07;;;;;;;17.77;5.25;;;16.00;99.90;;;;;;5091664;28;20513;-56
2021/09/01 03:53:33;;;;;;;15.85;4.38;;;16.00;99.90;;;;;;5091672;28;20067;-56
2021/09/01 03:55:58;;;;;;;18.52;5.45;;;16.00;99.90;;;;;;5091527;28;20040;-55
2021/09/01 03:58:24;;;;;;;17.42;6.15;;;16.00;99.90;;;;;;5091485;28;20047;-55
2021/09/01 04:00:50;;;;;;;16.38;4.80;;;16.00;99.90;;;;;;5091347;28;20032;-56
2021/09/01 04:03:15;;;;;;;17.27;5.35;;;16.00;99.90;;;;;;5091566;28;20025;-56
2021/09/01 04:05:41;;;;;;;17.27;5.57;;;16.00;99.90;;;;;;5091417;28;20032;-56
2021/09/01 04:08:07;;;;;;;16.00;5.13;;;16.00;99.90;;;;;;5091288;28;20036;-55
2021/09/01 04:10:32;;;;;;;14.82;5.53;;;16.00;99.90;;;;;;5091264;28;20120;-56
2021/09/01 04:12:58;;;;;;;18.20;5.18;;;16.00;99.90;;;;;;5091244;28;20033;-56
2021/09/01 04:15:23;;;;;;;14.65;5.07;;;16.00;99.90;;;;;;5091445;28;20044;-56
2021/09/01 04:17:49;;;;;;;14.65;3.97;;;16.00;99.90;;;;;;5092824;28;20408;-56
2021/09/01 04:20:15;;;;;;;11.68;4.65;;;16.00;99.90;;;;;;5095106;28;20044;-55
2021/09/01 04:22:41;;;;;;;13.77;5.13;;;16.00;99.90;;;;;;5077489;28;20584;-56
2021/09/01 04:25:07;;;;;;;10.05;4.60;;;16.00;99.90;;;;;;5094969;28;20043;-56
2021/09/01 04:27:33;;;;;;;12.27;4.30;;;16.00;99.90;;;;;;5094848;28;20063;-55
2021/09/01 04:29:58;;;;;;;19.13;5.03;;;16.00;99.90;;;;;;5094828;28;20490;-55
2021/09/01 04:32:24;;;;;;;14.50;4.63;;;16.00;99.90;;;;;;5094928;28;20040;-55
2021/09/01 04:34:50;;;;;;;14.15;5.72;;;15.90;99.90;;;;;;5094699;28;20056;-56
2021/09/01 04:37:15;;;;;;;13.77;5.35;;;15.90;99.90;;;;;;5094766;28;20055;-56
2021/09/01 04:39:41;;;;;;;23.13;6.18;;;15.90;99.90;;;;;;5094624;28;20040;-56
2021/09/01 04:42:06;;;;;;;12.15;4.32;;;15.90;99.90;;;;;;5094519;28;20036;-56
2021/09/01 04:44:32;;;;;;;14.55;5.05;;;15.90;99.90;;;;;;5094561;28;20040;-56
2021/09/01 04:46:59;;;;;;;10.70;4.43;;;15.80;99.90;;;;;;5094845;28;20040;-56
2021/09/01 04:49:25;;;;;;;14.65;4.50;;;15.90;99.90;;;;;;5094476;28;20032;-56
2021/09/01 04:51:51;;;;;;;19.48;5.70;;;15.80;99.90;;;;;;5094373;28;20115;-56
2021/09/01 04:54:17;;;;;;;15.30;5.05;;;15.90;99.90;;;;;;5094299;28;20059;-55
2021/09/01 04:56:42;;;;;;;9.80;4.50;;;15.90;99.90;;;;;;5094319;28;20485;-55
2021/09/01 04:59:08;;;;;;;13.45;4.75;;;15.90;99.90;;;;;;5094421;28;20036;-55
2021/09/01 05:01:34;;;;;;;16.27;6.20;;;15.90;99.90;;;;;;5094293;28;20045;-56
2021/09/01 05:04:00;;;;;;;17.90;5.28;;;15.90;99.90;;;;;;5094282;28;20501;-56
2021/09/01 05:06:27;;;;;;;17.83;5.55;;;15.90;99.90;;;;;;5094446;28;20637;-56
2021/09/01 05:08:54;;;;;;;16.27;5.88;;;15.90;99.90;;;;;;5076062;28;20369;-55
2021/09/01 05:11:19;;;;;;;16.05;6.13;;;15.90;99.90;;;;;;5094259;28;20449;-56
2021/09/01 05:13:45;;;;;;;13.80;4.82;;;16.00;99.90;;;;;;5094342;28;20363;-55
2021/09/01 05:16:10;;;;;;;15.98;4.90;;;15.90;99.90;;;;;;5094060;28;20051;-56
2021/09/01 05:18:36;;;;;;;15.60;5.50;;;15.90;99.90;;;;;;5094025;28;20044;-56
2021/09/01 05:21:05;;;;;;;17.60;5.60;;;16.00;99.90;;;;;;5094050;28;20047;-56
2021/09/01 05:23:33;;;;;;;15.52;5.20;;;16.00;99.90;;;;;;5093849;28;20039;-56
2021/09/01 05:26:01;;;;;;;12.05;4.78;;;16.00;99.90;;;;;;5093998;28;20140;-56
2021/09/01 05:28:29;;;;;;;15.10;5.72;;;16.00;99.90;;;;;;5093131;28;20044;-56
2021/09/01 05:30:57;;;;;;;23.37;5.60;;;16.00;99.90;;;;;;5093209;28;20587;-56
2021/09/01 05:33:23;;;;;;;14.85;5.80;;;16.00;99.90;;;;;;5093781;28;20266;-56
2021/09/01 05:35:49;;;;;;;15.20;4.82;;;16.00;99.90;;;;;;5093576;28;20054;-55
2021/09/01 05:38:20;;;;;;;17.92;4.65;;;16.00;99.90;;;;;;5093381;28;20044;-56
2021/09/01 05:40:47;;;;;;;19.55;5.38;;;16.00;99.90;;;;;;5093403;28;20043;-56
2021/09/01 05:43:15;;;;;;;18.52;5.38;;;16.10;99.90;;;;;;5093434;28;20115;-56
2021/09/01 05:45:41;;;;;;;18.08;5.75;;;16.10;99.90;;;;;;5093336;28;20032;-56
2021/09/01 05:48:10;;;;;;;16.92;5.18;;;16.10;99.90;;;;;;5093179;28;20039;-56
2021/09/01 05:50:36;;;;;;;12.32;4.60;;;16.10;99.90;;;;;;5093298;28;20065;-56
2021/09/01 05:53:03;;;;;;;22.25;4.30;;;16.10;99.90;;;;;;5093189;28;20074;-56
2021/09/01 05:55:32;;;;;;;20.67;4.90;;;16.10;99.90;;;;;;5093310;28;20055;-56
2021/09/01 05:58:02;;;;;;;13.85;4.53;;;16.10;99.90;;;;;;5093127;28;20044;-56
2021/09/01 06:00:40;;;;;;;18.75;5.63;;;16.20;99.90;;;;;;5093247;28;20082;-56
2021/09/01 06:03:12;;;;;;;15.98;5.60;;;16.10;99.90;;;;;;5074945;28;20044;-55
2021/09/01 06:05:38;;;;;;;15.70;5.07;;;16.10;99.90;;;;;;5093081;28;20044;-56
2021/09/01 06:08:07;;;;;;;12.88;5.25;;;16.20;99.90;;;;;;5093121;28;20089;-56
2021/09/01 06:10:34;;;;;;;16.45;4.85;;;16.20;99.90;;;;;;5093144;28;20359;-55
2021/09/01 06:13:09;;;;;;;20.55;5.72;;;16.20;99.90;;;;;;5092956;28;20480;-56
2021/09/01 06:15:40;;;;;;;19.95;5.97;;;16.10;99.90;;;;;;5092779;28;20040;-56
2021/09/01 06:18:07;;;;;;;18.73;5.25;;;16.20;99.90;;;;;;5092847;28;20046;-56
2021/09/01 06:20:33;;;;;;;18.15;5.32;;;16.10;99.90;;;;;;5092841;28;20481;-56
2021/09/01 06:23:01;;;;;;;12.57;5.55;;;16.20;99.90;;;;;;5092785;28;20036;-56
2021/09/01 06:25:27;;;;;;;15.55;5.32;;;16.30;99.90;;;;;;5092507;28;20040;-56
2021/09/01 06:27:52;;;;;;;17.58;5.45;;;16.20;99.90;;;;;;5092701;28;20032;-55
2021/09/01 06:30:18;;;;;;;16.50;5.18;;;16.20;99.90;;;;;;5092349;28;20042;-56
2021/09/01 06:32:44;;;;;;;16.55;6.00;;;16.30;99.90;;;;;;5092683;28;20146;-56
2021/09/01 06:35:12;;;;;;;13.48;5.35;;;16.30;99.90;;;;;;5092322;28;20200;-56
2021/09/01 06:37:39;;;;;;;17.63;5.80;;;16.30;99.90;;;;;;5092364;28;20040;-56
2021/09/01 06:40:07;;;;;;;18.17;5.55;;;16.30;99.90;;;;;;5092000;28;20486;-56
2021/09/01 06:42:33;;;;;;;23.83;5.43;;;16.30;99.90;;;;;;5092296;28;20046;-56
2021/09/01 06:44:58;;;;;;;21.10;5.80;;;16.30;99.90;;;;;;5092187;28;20036;-56
2021/09/01 06:47:24;;;;;;;16.20;5.32;;;16.30;99.90;;;;;;5092545;28;20513;-56
2021/09/01 06:49:49;;;;;;;19.98;5.47;;;16.40;99.90;;;;;;5092222;28;20032;-56
2021/09/01 06:52:15;;;;;;;16.23;5.35;;;16.30;99.90;;;;;;5092105;28;20071;-56
2021/09/01 06:54:41;;;;;;;25.63;6.50;;;16.40;99.90;;;;;;5092494;28;20043;-56
2021/09/01 06:57:07;;;;;;;14.73;5.88;;;16.40;99.90;;;;;;5092149;28;20064;-56
2021/09/01 06:59:32;;;;;;;18.02;5.90;;;16.40;99.90;;;;;;5092073;28;20039;-56
2021/09/01 07:01:58;;;;;;;19.10;6.47;;;16.50;99.90;;;;;;5092218;28;20089;-56
2021/09/01 07:04:23;;;;;;;21.08;6.53;;;16.50;99.90;;;;;;5092117;28;20059;-56
2021/09/01 07:06:49;;;;;;;16.52;5.93;;;16.50;99.90;;;;;;5092256;28;20430;-56
2021/09/01 07:09:15;;;;;;;16.75;5.43;;;16.60;99.90;;;;;;5091968;28;20042;-56
2021/09/01 07:11:40;;;;;;;22.88;5.97;;;16.50;99.90;;;;;;5092119;28;20032;-56
2021/09/01 07:14:06;;;;;;;17.30;6.18;;;16.60;99.90;;;;;;5091714;28;20043;-56
2021/09/01 07:16:33;;;;;;;16.08;4.97;;;16.60;99.90;;;;;;5092065;28;20047;-56
2021/09/01 07:18:58;;;;;;;23.27;6.35;;;16.60;99.90;;;;;;5091810;28;20093;-56
2021/09/01 07:21:24;;;;;;;14.80;5.07;;;16.70;99.90;;;;;;5091922;28;20051;-56
2021/09/01 07:23:50;;;;;;;17.65;5.32;;;16.70;99.90;;;;;;5091644;28;20078;-56
2021/09/01 07:26:16;;;;;;;23.40;5.80;;;16.70;99.90;;;;;;5091729;28;20043;-56
2021/09/01 07:28:41;;;;;;;14.18;5.32;;;16.70;99.90;;;;;;5091705;28;20039;-56
2021/09/01 07:31:09;;;;;;;20.60;5.85;;;16.70;99.90;;;;;;5091877;28;20426;-56
2021/09/01 07:33:35;;;;;;;20.80;5.22;;;16.80;99.90;;;;;;5091771;28;20044;-56
2021/09/01 07:36:01;;;;;;;17.30;5.20;;;16.70;99.90;;;;;;5091745;28;20131;-56
2021/09/01 07:38:27;;;;;;;19.45;5.38;;;16.80;99.90;;;;;;5092013;28;20071;-56
2021/09/01 07:40:53;;;;;;;15.05;5.05;;;16.80;99.90;;;;;;5091626;28;20621;-56
2021/09/01 07:43:19;;;;;;;14.20;5.70;;;16.80;99.90;;;;;;5073501;28;20119;-56
2021/09/01 07:45:46;;;;;;;13.43;4.88;;;16.80;99.90;;;;;;5091785;28;20440;-56
2021/09/01 07:48:16;;;;;;;15.35;5.18;;;16.80;99.90;;;;;;5091774;28;20097;-56
2021/09/01 07:50:43;;;;;;;14.40;5.13;;;16.80;99.90;;;;;;5091713;28;20051;-56
2021/09/01 07:53:09;;;;;;;11.30;4.80;;;16.80;99.90;;;;;;5093702;28;20040;-56
2021/09/01 07:55:35;;;;;;;17.00;6.40;;;16.80;99.90;;;;;;5095571;28;20040;-55
2021/09/01 07:58:01;;;;;;;17.20;5.72;;;16.90;99.90;;;;;;5095483;28;20410;-56
2021/09/01 08:00:27;;;;;;;16.65;5.72;;;16.90;99.90;;;;;;5095563;28;20115;-56
2021/09/01 08:02:53;;;;;;;15.88;5.43;;;16.90;99.90;;;;;;5095513;28;20114;-56
2021/09/01 08:05:20;;;;;;;16.50;5.35;;;16.90;99.90;;;;;;5095323;28;20413;-56
2021/09/01 08:07:47;;;;;;;14.50;5.00;;;16.90;99.90;;;;;;5095380;28;20051;-56
2021/09/01 08:10:13;;;;;;;12.30;6.00;;;16.90;99.90;;;;;;5095240;28;20040;-56
2021/09/01 08:12:40;;;;;;;18.42;6.03;;;17.00;99.90;;;;;;5095311;28;20398;-56
2021/09/01 08:15:07;;;;;;;17.20;5.82;;;17.00;99.90;;;;;;5095557;28;20122;-55
2021/09/01 08:17:33;;;;;;;13.52;5.75;;;17.00;99.90;;;;;;5095611;28;20394;-56
2021/09/01 08:19:59;;;;;;;16.95;5.22;;;17.00;99.90;;;;;;5095607;28;20342;-56
2021/09/01 08:22:24;;;;;;;11.60;5.15;;;17.00;99.90;;;;;;5095100;28;20040;-56
2021/09/01 08:24:50;;;;;;;15.50;5.47;;;17.10;99.90;;;;;;5094755;28;20477;-56
2021/09/01 08:27:16;;;;;;;18.92;5.32;;;17.10;99.90;;;;;;5095107;28;20039;-56
2021/09/01 08:29:42;;;;;;;19.92;5.05;;;17.10;99.90;;;;;;5095005;28;20047;-56
2021/09/01 08:32:09;;;;;;;15.95;4.80;;;17.10;99.90;;;;;;5094685;28;20070;-56
2021/09/01 08:34:34;;;;;;;11.93;4.47;;;17.20;99.90;;;;;;5094578;28;20036;-56
2021/09/01 08:37:02;;;;;;;14.48;5.20;;;17.20;99.90;;;;;;5094583;28;20071;-55
2021/09/01 08:39:28;;;;;;;16.55;5.85;;;17.20;99.90;;;;;;5094674;28;20048;-56
2021/09/01 08:41:54;;;;;;;17.08;5.10;;;17.20;99.90;;;;;;5094490;28;20039;-56
2021/09/01 08:44:20;;;;;;;19.08;5.07;;;17.20;99.90;;;;;;5094700;28;20044;-56
2021/09/01 08:46:50;;;;;;;13.65;4.57;;;17.20;99.90;;;;;;5094719;28;20047;-56
2021/09/01 08:49:18;;;;;;;18.40;5.53;;;17.30;99.90;;;;;;5094772;28;20028;-55
2021/09/01 08:51:48;;;;;;;17.43;5.40;;;17.30;99.90;;;;;;5094341;28;20501;-56
2021/09/01 08:54:14;;;;;;;14.00;4.90;;;17.30;99.90;;;;;;5076007;28;20405;-56
2021/09/01 08:56:41;;;;;;;11.18;4.68;;;17.40;99.90;;;;;;5094553;28;20407;-56
2021/09/01 08:59:06;;;;;;;16.77;4.60;;;17.40;99.90;;;;;;5094412;28;20068;-56
2021/09/01 09:01:45;;;;;;;17.15;4.57;;;17.40;99.90;;;;;;5094426;28;20086;-56
2021/09/01 09:04:14;;;;;;;11.45;4.32;;;17.40;99.90;;;;;;5075539;28;20040;-56
2021/09/01 09:07:00;;;;;;;17.52;4.45;;;17.50;99.90;;;;;;5094172;28;20504;-56
2021/09/01 09:09:27;;;;;;;12.98;4.13;;;17.50;99.90;;;;;;5094257;28;20040;-56
2021/09/01 09:11:55;;;;;;;17.27;4.70;;;17.60;99.90;;;;;;5094105;28;20089;-56
2021/09/01 09:14:49;;;;;;;14.93;4.35;;;17.60;99.90;;;;;;5094328;28;20476;-56
2021/09/01 09:17:19;;;;;;;11.70;4.55;;;17.60;99.90;;;;;;4992176;28;20077;-56
2021/09/01 09:20:02;;;;;;;10.43;4.65;;;17.70;99.90;;;;;;4992247;28;20059;-56
2021/09/01 09:22:34;;;;;;;19.35;4.75;;;17.70;99.90;;;;;;4992125;28;20054;-56
2021/09/01 09:25:12;;;;;;;17.42;4.35;;;17.70;99.90;;;;;;4992065;28;20141;-56
2021/09/01 09:27:52;;;;;;;13.63;4.38;;;17.70;99.90;;;;;;4975881;28;20057;-56
2021/09/01 09:30:21;;;;;;;16.02;4.22;;;17.80;99.90;;;;;;4992189;28;20124;-55
2021/09/01 09:32:54;;;;;;;12.65;4.18;;;17.80;99.90;;;;;;4992301;28;20046;-56
2021/09/01 09:35:20;;;;;;;14.07;3.63;;;17.80;99.90;;;;;;4991810;28;20184;-57
2021/09/01 09:37:59;;;;;;;11.25;3.97;;;17.80;99.90;;;;;;4991925;28;20133;-56
2021/09/01 09:40:24;;;;;;;14.82;4.95;;;17.80;99.90;;;;;;4991891;28;20061;-56
2021/09/01 09:42:50;;;;;;;17.20;4.72;;;17.90;99.90;;;;;;4991753;28;20042;-56
2021/09/01 09:45:26;;;;;;;14.57;4.35;;;17.90;99.90;;;;;;4991684;28;20520;-56
2021/09/01 09:47:56;;;;;;;10.68;3.47;;;17.90;99.90;;;;;;4991719;28;20046;-56
2021/09/01 09:50:22;;;;;;;16.65;5.25;;;18.00;99.90;;;;;;4991648;28;20042;-56
2021/09/01 09:52:49;;;;;;;14.50;4.63;;;18.00;99.90;;;;;;4975447;28;20108;-56
2021/09/01 09:55:21;;;;;;;13.30;4.60;;;18.00;99.90;;;;;;5084760;28;20445;-56
2021/09/01 09:58:01;;;;;;;14.07;4.55;;;18.10;99.90;;;;;;5093271;28;20085;-56
2021/09/01 10:00:28;;;;;;;15.63;3.92;;;18.10;99.90;;;;;;5093304;28;20896;-56
2021/09/01 10:02:54;;;;;;;16.35;4.30;;;18.10;99.90;;;;;;5074974;28;20413;-56
2021/09/01 10:05:27;;;;;;;14.55;4.88;;;18.10;99.90;;;;;;5093432;28;20400;-56
2021/09/01 10:07:57;;;;;;;14.75;4.05;;;18.10;99.90;;;;;;5092942;28;20036;-56
2021/09/01 10:10:22;;;;;;;14.30;4.10;;;18.10;99.90;;;;;;5092898;28;20051;-56
2021/09/01 10:12:48;;;;;;;14.75;4.72;;;18.10;99.90;;;;;;5092813;28;20036;-56
2021/09/01 10:15:29;;;;;;;14.25;3.72;;;18.10;99.90;;;;;;5092009;28;20051;-56
2021/09/01 10:18:01;;;;;;;16.70;4.75;;;18.10;99.90;;;;;;5092908;28;20044;-56
2021/09/01 10:20:28;;;;;;;12.85;3.90;;;18.00;99.90;;;;;;5092810;28;20470;-57
2021/09/01 10:23:07;;;;;;;12.02;3.88;;;18.10;99.90;;;;;;5092810;28;20044;-56
2021/09/01 10:25:50;;;;;;;13.70;4.25;;;18.00;99.90;;;;;;5074634;28;20036;-56
2021/09/01 10:28:34;;;;;;;9.80;4.18;;;18.00;99.90;;;;;;5092803;28;20097;-56
2021/09/01 10:31:08;;;;;;;10.48;3.75;;;18.00;99.90;;;;;;5074474;28;20036;-56
2021/09/01 10:33:46;;;;;;;11.05;4.30;;;18.00;99.90;;;;;;5092446;28;20393;-56
2021/09/01 10:36:24;;;;;;;13.98;3.83;;;18.00;99.90;;;;;;5092169;28;20094;-56
2021/09/01 10:38:56;;;;;;;12.20;4.28;;;18.00;99.90;;;;;;5092351;28;20543;-56
2021/09/01 10:41:30;;;;;;;12.38;3.40;;;18.10;99.90;;;;;;5092558;28;20048;-56
2021/09/01 10:44:05;;;;;;;13.55;3.78;;;18.10;99.90;;;;;;5092295;28;20044;-56
2021/09/01 10:46:53;;;;;;;10.55;3.70;;;18.10;99.90;;;;;;5092167;28;20111;-56
2021/09/01 10:49:27;;;;;;;11.35;3.45;;;18.10;99.90;;;;;;5092471;28;20390;-56
2021/09/01 10:51:55;;;;;;;14.32;3.85;;;18.20;99.90;;;;;;5074166;28;20047;-55
2021/09/01 10:54:37;;;;;;;10.35;3.45;;;18.20;99.90;;;;;;5092279;28;20066;-55
2021/09/01 10:57:32;;;;;;;14.40;4.70;;;18.20;99.90;;;;;;5092029;28;20146;-56
2021/09/01 10:59:59;;;;;;;12.75;3.65;;;18.20;99.90;;;;;;5087151;28;20085;-56
2021/09/01 11:02:25;;;;;;;19.15;3.78;;;18.20;99.90;;;;;;5092164;28;20040;-56
2021/09/01 11:04:52;;;;;;;10.32;3.40;;;18.10;99.90;;;;;;5092209;28;20394;-56
2021/09/01 11:07:38;;;;;;;12.07;3.85;;;18.30;99.90;;;;;;5091899;28;20036;-56
2021/09/01 11:10:06;;;;;;;13.82;3.83;;;18.30;99.90;;;;;;5091778;28;20048;-56
2021/09/01 11:12:41;;;;;;;10.65;3.47;;;18.30;99.90;;;;;;5092269;28;20446;-56
2021/09/01 11:15:08;;;;;;;10.98;4.13;;;18.30;99.90;;;;;;5091917;28;20490;-55
2021/09/01 11:17:34;;;;;;;14.63;3.80;;;18.40;99.90;;;;;;5090782;28;20048;-56
2021/09/01 11:20:02;;;;;;;10.80;3.95;;;18.40;99.90;;;;;;5091636;28;20096;-56
2021/09/01 11:22:30;;;;;;;9.40;3.80;;;18.50;99.90;;;;;;5091655;28;20547;-56
2021/09/01 11:25:05;;;;;;;12.25;3.25;;;18.50;99.90;;;;;;5091669;28;20322;-56
2021/09/01 11:27:32;;;;;;;9.80;3.00;;;18.50;99.90;;;;;;5094613;28;20047;-56
2021/09/01 11:30:10;;;;;;;12.20;3.72;;;18.50;99.90;;;;;;5095885;28;20047;-56
2021/09/01 11:32:37;;;;;;;8.00;3.22;;;18.60;99.90;;;;;;5095868;28;20040;-56
2021/09/01 11:35:12;;;;;;;14.13;3.30;;;18.50;99.90;;;;;;5095655;28;20505;-56
2021/09/01 11:37:37;;;;;;;9.38;3.72;;;18.60;99.90;;;;;;5096020;28;20051;-56
2021/09/01 11:40:04;;;;;;;11.18;3.45;;;18.60;99.90;;;;;;5095901;28;20051;-56
2021/09/01 11:42:34;;;;;;;9.75;3.35;;;18.60;99.90;;;;;;5095683;28;20040;-56
2021/09/01 11:45:01;;;;;;;8.60;3.92;;;18.70;99.90;;;;;;5095508;28;20044;-56
2021/09/01 11:47:27;;;;;;;14.00;4.25;;;18.60;99.90;;;;;;5095835;28;20077;-56
2021/09/01 11:49:55;;;;;;;9.35;3.88;;;18.60;99.90;;;;;;5095837;28;20040;-56
2021/09/01 11:52:34;;;;;;;9.60;4.18;;;18.60;99.90;;;;;;5095685;28;20397;-56
2021/09/01 11:55:01;;;;;;;16.02;4.50;;;18.60;99.90;;;;;;5095455;28;20052;-56
2021/09/01 11:57:28;;;;;;;15.15;4.50;;;18.60;99.90;;;;;;5095164;28;20050;-56
2021/09/01 11:59:57;;;;;;;9.50;3.58;;;18.60;99.90;;;;;;5095084;28;20123;-56
2021/09/01 12:02:28;;;;;;;12.73;3.58;;;18.60;99.90;;;;;;5095320;28;20047;-56
2021/09/01 12:04:54;;;;;;;10.95;3.17;;;18.60;99.90;;;;;;5095124;28;20044;-56
2021/09/01 12:07:25;;;;;;;16.15;4.43;;;18.60;99.90;;;;;;5095296;28;20474;-56
2021/09/01 12:09:58;;;;;;;7.90;3.17;;;18.60;99.90;;;;;;5095119;28;20413;-56
2021/09/01 12:12:32;;;;;;;8.95;3.50;;;18.60;99.90;;;;;;5095398;28;20114;-56
2021/09/01 12:15:12;;;;;;;9.60;3.45;;;18.60;99.90;;;;;;5095080;28;20046;-56
2021/09/01 12:17:42;;;;;;;16.00;4.10;;;18.50;99.90;;;;;;5095269;28;20139;-56
2021/09/01 12:20:13;;;;;;;12.25;4.32;;;18.60;99.90;;;;;;5094715;28;20036;-56
2021/09/01 12:22:41;;;;;;;13.07;4.28;;;18.50;99.90;;;;;;5094816;28;20027;-56
2021/09/01 12:25:16;;;;;;;10.38;3.40;;;18.60;99.90;;;;;;5094771;28;20048;-56
2021/09/01 12:28:04;;;;;;;12.25;3.97;;;18.60;99.90;;;;;;5094728;28;20054;-56
2021/09/01 12:30:32;;;;;;;8.45;3.28;;;18.50;99.90;;;;;;5094574;28;20064;-56
2021/09/01 12:33:08;;;;;;;8.40;2.97;;;18.60;99.90;;;;;;5094629;28;20390;-56
2021/09/01 12:35:34;;;;;;;6.60;3.22;;;18.60;99.90;;;;;;5094776;28;20060;-56
2021/09/01 12:38:02;;;;;;;9.18;3.22;;;18.50;99.90;;;;;;5093947;28;20551;-56
2021/09/01 12:40:31;;;;;;;8.77;4.07;;;18.50;99.90;;;;;;5094626;28;20048;-56
2021/09/01 12:43:06;;;;;;;9.55;3.00;;;18.50;99.90;;;;;;5094356;28;20028;-56